Time;durP1;ratioP1;P1;durP2;ratioP2;P2;SDS_P1;SDS_P2;PMS_P1;PMS_P2;Temp;Humidity;BMP_temperature;BMP_pressure;BME280_temperature;BME280_humidity;BME280_pressure;Samples;Min_cycle;Max_cycle;Signal;HPM_P1;HPM_P2
2023/03/09 00:00:35;;;;;;;3.00;0.60;;;10.60;80.20;;;;;;5054970;28;20056;-75
2023/03/09 00:03:00;;;;;;;1.42;0.73;;;10.60;79.20;;;;;;5054928;28;20462;-75
2023/03/09 00:05:26;;;;;;;1.17;0.50;;;10.70;79.60;;;;;;5036842;28;20049;-75
2023/03/09 00:07:54;;;;;;;1.40;0.47;;;10.60;79.00;;;;;;5054655;28;20025;-74
2023/03/09 00:10:19;;;;;;;1.77;0.73;;;10.70;77.80;;;;;;5053927;28;20021;-75
2023/03/09 00:12:45;;;;;;;0.38;0.32;;;10.80;76.90;;;;;;5054815;28;20025;-76
2023/03/09 00:15:11;;;;;;;1.33;0.65;;;10.80;76.90;;;;;;5054843;28;20525;-74
2023/03/09 00:17:37;;;;;;;2.45;0.70;;;10.80;77.80;;;;;;5054573;28;20032;-75
2023/03/09 00:20:19;;;;;;;1.23;0.70;;;10.70;77.90;;;;;;5054526;28;20029;-76
2023/03/09 00:22:49;;;;;;;2.08;0.50;;;10.70;78.10;;;;;;5054428;28;20401;-74
2023/03/09 00:25:16;;;;;;;2.33;0.70;;;10.80;77.30;;;;;;5054493;28;20029;-76
2023/03/09 00:27:42;;;;;;;2.75;0.82;;;10.70;77.90;;;;;;5054513;28;20021;-75
2023/03/09 00:30:10;;;;;;;1.42;0.50;;;10.70;77.40;;;;;;5054457;28;20036;-76
2023/03/09 00:32:36;;;;;;;0.52;0.30;;;10.70;78.20;;;;;;5054226;28;20025;-75
2023/03/09 00:35:02;;;;;;;2.40;0.50;;;10.70;78.10;;;;;;5036356;28;20029;-76
2023/03/09 00:37:27;;;;;;;4.28;0.75;;;10.60;77.80;;;;;;5054359;28;20470;-76
2023/03/09 00:39:53;;;;;;;3.20;0.50;;;10.60;76.90;;;;;;5054141;28;20037;-76
2023/03/09 00:42:18;;;;;;;1.42;0.32;;;10.70;75.50;;;;;;5036321;28;20025;-75
2023/03/09 00:44:46;;;;;;;1.10;0.30;;;10.70;75.20;;;;;;5053958;28;20035;-75
2023/03/09 00:47:12;;;;;;;1.38;0.32;;;10.70;71.90;;;;;;5054062;28;20019;-75
2023/03/09 00:49:38;;;;;;;0.45;0.20;;;10.80;70.90;;;;;;5054018;28;20493;-75
2023/03/09 00:52:04;;;;;;;1.88;0.20;;;10.60;72.80;;;;;;5036160;28;20031;-76
2023/03/09 00:54:30;;;;;;;1.65;0.47;;;10.50;73.70;;;;;;5053986;28;20055;-76
2023/03/09 00:56:55;;;;;;;1.60;0.60;;;10.30;74.70;;;;;;5054055;28;20025;-76
2023/03/09 00:59:21;;;;;;;1.10;0.30;;;10.20;76.00;;;;;;5053741;28;20029;-74
2023/03/09 01:01:46;;;;;;;1.13;0.35;;;10.10;76.10;;;;;;5053787;28;20083;-76
2023/03/09 01:04:12;;;;;;;2.72;0.63;;;10.10;74.30;;;;;;5053579;28;20061;-74
2023/03/09 01:06:37;;;;;;;0.82;0.20;;;10.00;75.70;;;;;;5053625;28;20093;-74
2023/03/09 01:09:03;;;;;;;2.42;0.40;;;9.90;76.80;;;;;;5053704;28;20032;-74
2023/03/09 01:11:29;;;;;;;2.60;0.30;;;9.80;77.90;;;;;;5053640;28;20104;-75
2023/03/09 01:13:54;;;;;;;1.10;0.35;;;9.70;79.70;;;;;;5053523;28;20025;-76
2023/03/09 01:16:21;;;;;;;0.68;0.38;;;9.70;80.50;;;;;;5053519;28;20025;-76
2023/03/09 01:18:46;;;;;;;3.33;0.60;;;9.60;80.20;;;;;;5053472;28;20048;-76
2023/03/09 01:21:12;;;;;;;0.80;0.40;;;9.60;79.30;;;;;;5052638;28;20118;-77
2023/03/09 01:23:39;;;;;;;2.22;0.43;;;9.60;80.10;;;;;;5053908;28;20389;-77
2023/03/09 01:26:07;;;;;;;4.88;1.20;;;9.60;79.80;;;;;;5053565;28;20021;-75
2023/03/09 01:28:34;;;;;;;2.05;0.50;;;9.50;80.20;;;;;;5053487;28;20021;-75
2023/03/09 01:31:00;;;;;;;2.58;0.85;;;9.50;80.50;;;;;;5053430;28;20013;-75
2023/03/09 01:33:26;;;;;;;0.82;0.40;;;9.50;80.90;;;;;;5053303;28;20083;-75
2023/03/09 01:35:51;;;;;;;1.35;0.47;;;9.50;81.50;;;;;;5053264;28;20017;-75
2023/03/09 01:38:17;;;;;;;1.13;0.30;;;9.40;81.70;;;;;;5053267;28;20433;-75
2023/03/09 01:40:47;;;;;;;2.10;0.52;;;9.40;82.10;;;;;;5053105;28;20075;-75
2023/03/09 01:43:36;;;;;;;0.63;0.25;;;9.40;82.20;;;;;;5053025;28;20018;-75
2023/03/09 01:46:20;;;;;;;3.58;0.60;;;9.30;82.50;;;;;;5053229;28;20493;-77
2023/03/09 01:49:03;;;;;;;0.85;0.68;;;9.30;83.00;;;;;;5052777;28;20424;-75
2023/03/09 01:51:41;;;;;;;1.08;0.50;;;9.30;83.20;;;;;;5053032;28;20104;-75
2023/03/09 01:54:11;;;;;;;1.98;0.60;;;9.30;83.40;;;;;;5052909;28;20397;-75
2023/03/09 01:56:39;;;;;;;2.08;0.50;;;9.30;83.60;;;;;;5035127;28;20021;-75
2023/03/09 01:59:07;;;;;;;1.48;0.60;;;9.20;83.80;;;;;;5052926;28;20079;-75
2023/03/09 02:01:34;;;;;;;7.82;0.52;;;9.20;83.80;;;;;;5052907;28;20029;-75
2023/03/09 02:04:08;;;;;;;0.93;0.40;;;9.20;83.80;;;;;;5052744;28;20375;-74
2023/03/09 02:06:34;;;;;;;2.72;0.40;;;9.20;84.30;;;;;;5052860;28;20033;-74
2023/03/09 02:09:09;;;;;;;1.30;0.40;;;9.10;84.70;;;;;;5052909;28;20055;-76
2023/03/09 02:11:35;;;;;;;1.05;0.43;;;9.00;85.10;;;;;;5052882;28;20021;-74
2023/03/09 02:14:01;;;;;;;1.85;0.50;;;8.90;85.70;;;;;;5052782;28;20029;-73
2023/03/09 02:16:27;;;;;;;1.08;0.20;;;8.70;85.30;;;;;;5052879;28;20589;-75
2023/03/09 02:18:53;;;;;;;1.70;0.40;;;8.60;84.50;;;;;;5052598;28;20037;-73
2023/03/09 02:21:24;;;;;;;2.53;0.55;;;8.40;84.50;;;;;;5052442;28;20017;-73
2023/03/09 02:24:19;;;;;;;1.70;0.38;;;8.30;85.00;;;;;;5052626;28;20109;-74
2023/03/09 02:26:50;;;;;;;2.15;0.40;;;8.10;85.80;;;;;;5052771;28;20481;-75
2023/03/09 02:29:16;;;;;;;2.20;0.38;;;7.90;86.60;;;;;;5052701;28;20363;-75
2023/03/09 02:31:42;;;;;;;0.65;0.10;;;7.90;86.90;;;;;;5052573;28;20060;-74
2023/03/09 02:34:09;;;;;;;1.48;0.43;;;7.90;87.10;;;;;;5055896;28;20032;-75
2023/03/09 02:36:34;;;;;;;1.42;0.43;;;7.90;87.10;;;;;;5056611;28;20017;-75
2023/03/09 02:39:09;;;;;;;2.47;0.40;;;7.90;87.70;;;;;;5056402;28;20499;-73
2023/03/09 02:41:35;;;;;;;2.00;0.60;;;7.90;87.60;;;;;;5056458;28;20035;-75
2023/03/09 02:44:01;;;;;;;3.40;0.60;;;8.00;87.70;;;;;;5056475;28;20025;-73
2023/03/09 02:46:27;;;;;;;3.45;0.93;;;8.00;89.10;;;;;;5056498;28;20142;-74
2023/03/09 02:48:52;;;;;;;2.78;0.88;;;8.10;88.70;;;;;;5056435;28;20196;-76
2023/03/09 02:51:18;;;;;;;2.97;0.85;;;8.20;89.20;;;;;;5056173;28;20021;-73
2023/03/09 02:53:43;;;;;;;4.68;0.85;;;8.20;89.40;;;;;;5056335;28;20362;-74
2023/03/09 02:56:09;;;;;;;2.28;0.70;;;8.30;89.50;;;;;;5038306;28;20025;-75
2023/03/09 02:58:35;;;;;;;4.38;0.70;;;8.40;89.80;;;;;;5056050;28;20027;-74
2023/03/09 03:01:00;;;;;;;2.80;0.93;;;8.50;89.70;;;;;;5038304;28;20036;-74
2023/03/09 03:03:26;;;;;;;3.60;0.70;;;8.40;90.10;;;;;;5038255;28;20025;-74
2023/03/09 03:05:52;;;;;;;2.42;0.98;;;8.40;90.50;;;;;;5055943;28;20057;-75
2023/03/09 03:08:17;;;;;;;4.35;0.95;;;8.40;90.60;;;;;;5055824;28;20477;-73
2023/03/09 03:10:43;;;;;;;1.25;0.60;;;8.40;90.50;;;;;;5055796;28;20098;-75
2023/03/09 03:13:08;;;;;;;1.80;0.90;;;8.40;90.40;;;;;;5037900;28;20036;-73
2023/03/09 03:15:34;;;;;;;3.20;0.90;;;8.50;89.70;;;;;;5055978;28;20033;-75
2023/03/09 03:18:00;;;;;;;2.55;0.70;;;8.60;88.80;;;;;;5056003;28;20029;-75
2023/03/09 03:20:26;;;;;;;3.17;0.70;;;8.70;88.30;;;;;;5055715;28;20028;-74
2023/03/09 03:22:52;;;;;;;3.25;0.70;;;8.70;87.80;;;;;;5055788;28;20025;-75
2023/03/09 03:25:17;;;;;;;2.03;0.68;;;8.80;86.60;;;;;;5055836;28;20033;-74
2023/03/09 03:27:44;;;;;;;1.42;0.50;;;9.00;86.10;;;;;;5055630;28;20040;-73
2023/03/09 03:30:12;;;;;;;1.27;0.35;;;9.00;84.50;;;;;;5037735;28;20029;-76
2023/03/09 03:32:37;;;;;;;5.18;0.85;;;9.10;83.40;;;;;;5055203;28;20116;-75
2023/03/09 03:35:03;;;;;;;5.28;0.60;;;9.20;83.70;;;;;;5055441;28;20053;-77
2023/03/09 03:37:29;;;;;;;2.65;0.60;;;9.20;82.90;;;;;;5055396;28;20029;-75
2023/03/09 03:39:55;;;;;;;0.85;0.30;;;9.30;82.70;;;;;;5055352;28;20397;-76
2023/03/09 03:42:21;;;;;;;4.32;0.90;;;9.30;82.20;;;;;;5055315;28;20116;-75
2023/03/09 03:44:46;;;;;;;0.60;0.32;;;9.30;83.10;;;;;;5053786;28;20111;-75
2023/03/09 03:47:12;;;;;;;1.90;0.43;;;9.30;83.80;;;;;;5055360;28;20492;-75
2023/03/09 03:49:37;;;;;;;2.47;0.52;;;9.30;84.80;;;;;;5055362;28;20025;-75
2023/03/09 03:52:03;;;;;;;1.13;0.75;;;9.30;85.60;;;;;;5055250;28;20021;-76
2023/03/09 03:54:28;;;;;;;2.45;0.65;;;9.20;86.10;;;;;;5055267;28;20100;-76
2023/03/09 03:56:54;;;;;;;3.22;0.80;;;9.10;86.10;;;;;;5055436;28;20017;-77
2023/03/09 03:59:20;;;;;;;1.65;0.55;;;9.00;86.10;;;;;;5055436;28;20025;-77
2023/03/09 04:01:45;;;;;;;1.92;0.68;;;9.00;86.20;;;;;;5055354;28;20359;-76
2023/03/09 04:04:11;;;;;;;2.22;0.80;;;9.10;86.20;;;;;;5054692;28;20045;-74
2023/03/09 04:06:36;;;;;;;0.98;0.40;;;9.00;86.70;;;;;;5054849;28;20032;-76
2023/03/09 04:09:04;;;;;;;1.52;0.60;;;8.90;86.40;;;;;;5054745;28;20021;-76
2023/03/09 04:11:30;;;;;;;2.03;0.65;;;8.90;86.80;;;;;;5054833;28;20016;-75
2023/03/09 04:13:55;;;;;;;2.42;0.60;;;8.90;86.70;;;;;;5054733;28;20082;-74
2023/03/09 04:16:21;;;;;;;2.15;0.70;;;8.80;86.50;;;;;;5036786;28;20029;-75
2023/03/09 04:18:47;;;;;;;0.38;0.30;;;8.80;86.40;;;;;;5054446;28;20064;-74
2023/03/09 04:21:13;;;;;;;1.27;0.50;;;8.80;86.60;;;;;;5054665;28;20485;-75
2023/03/09 04:23:38;;;;;;;2.05;0.60;;;8.80;86.70;;;;;;5054391;28;20092;-75
2023/03/09 04:26:05;;;;;;;4.45;0.90;;;8.80;86.70;;;;;;5054302;28;20082;-75
2023/03/09 04:28:31;;;;;;;2.03;0.60;;;8.80;86.80;;;;;;5054506;28;20025;-75
2023/03/09 04:30:56;;;;;;;1.90;0.50;;;8.80;86.50;;;;;;5054326;28;20098;-75
2023/03/09 04:33:22;;;;;;;2.35;0.60;;;8.80;86.40;;;;;;5054215;28;20398;-75
2023/03/09 04:35:48;;;;;;;4.15;0.82;;;8.80;86.50;;;;;;5054258;28;20051;-75
2023/03/09 04:38:14;;;;;;;1.42;0.70;;;8.80;86.70;;;;;;5036289;28;20027;-75
2023/03/09 04:40:40;;;;;;;3.05;0.70;;;8.80;86.70;;;;;;5055456;28;20097;-75
2023/03/09 04:43:06;;;;;;;5.10;0.77;;;8.70;87.00;;;;;;5055678;28;20025;-75
2023/03/09 04:45:31;;;;;;;3.42;0.88;;;8.70;86.90;;;;;;5062169;28;20025;-76
2023/03/09 04:47:57;;;;;;;1.27;0.55;;;8.70;87.40;;;;;;5054001;28;20465;-75
2023/03/09 04:50:23;;;;;;;4.55;1.25;;;8.70;86.80;;;;;;5054125;28;20017;-75
2023/03/09 04:52:49;;;;;;;2.05;0.50;;;8.60;86.80;;;;;;5054010;28;20446;-74
2023/03/09 04:55:16;;;;;;;4.60;1.10;;;8.50;87.20;;;;;;5053556;28;20044;-75
2023/03/09 04:57:42;;;;;;;7.43;1.30;;;8.50;87.20;;;;;;5053394;28;20025;-75
2023/03/09 05:00:11;;;;;;;3.45;0.93;;;8.60;87.40;;;;;;5053671;28;20084;-74
2023/03/09 05:02:38;;;;;;;4.25;1.15;;;8.60;85.70;;;;;;5053759;28;20051;-75
2023/03/09 05:05:05;;;;;;;7.18;1.33;;;8.50;86.00;;;;;;5053539;28;20086;-75
2023/03/09 05:07:30;;;;;;;7.15;1.52;;;8.60;86.30;;;;;;5035742;28;20025;-75
2023/03/09 05:09:56;;;;;;;5.90;1.42;;;8.60;86.10;;;;;;5053497;28;20039;-74
2023/03/09 05:12:21;;;;;;;5.22;1.23;;;8.60;85.40;;;;;;5053574;28;20025;-74
2023/03/09 05:14:47;;;;;;;3.03;0.82;;;8.50;84.70;;;;;;5053322;28;20102;-74
2023/03/09 05:17:12;;;;;;;5.47;2.03;;;8.50;84.50;;;;;;5053424;28;20036;-74
2023/03/09 05:19:38;;;;;;;8.25;1.40;;;8.50;84.30;;;;;;5053296;28;20028;-75
2023/03/09 05:22:05;;;;;;;6.82;1.40;;;8.40;85.00;;;;;;5053439;28;20075;-75
2023/03/09 05:24:30;;;;;;;5.68;1.13;;;8.50;85.10;;;;;;5035319;28;20120;-75
2023/03/09 05:26:56;;;;;;;5.03;1.17;;;8.40;84.90;;;;;;5053232;28;20104;-75
2023/03/09 05:29:22;;;;;;;4.70;1.38;;;8.50;84.50;;;;;;5053192;28;20104;-76
2023/03/09 05:31:48;;;;;;;5.43;1.00;;;8.40;84.10;;;;;;5053263;28;20667;-77
2023/03/09 05:34:13;;;;;;;7.88;1.13;;;8.40;83.30;;;;;;5053177;28;20048;-75
2023/03/09 05:36:39;;;;;;;5.85;1.35;;;8.50;82.80;;;;;;5053091;28;20060;-75
2023/03/09 05:39:04;;;;;;;7.28;1.38;;;8.50;82.00;;;;;;5052995;28;20029;-75
2023/03/09 05:41:30;;;;;;;6.13;1.30;;;8.50;81.70;;;;;;5035150;28;20530;-75
2023/03/09 05:43:58;;;;;;;10.10;1.80;;;8.50;81.80;;;;;;5054479;28;20124;-74
2023/03/09 05:46:24;;;;;;;8.68;2.60;;;8.50;81.80;;;;;;5052988;28;20032;-74
2023/03/09 05:48:50;;;;;;;7.13;1.65;;;8.50;80.80;;;;;;5052825;28;20362;-74
2023/03/09 05:51:15;;;;;;;5.10;1.40;;;8.50;81.00;;;;;;5052896;28;20044;-74
2023/03/09 05:53:41;;;;;;;7.93;1.83;;;8.50;80.40;;;;;;5052903;28;20504;-74
2023/03/09 05:56:07;;;;;;;10.68;1.70;;;8.50;80.30;;;;;;5052796;28;20075;-75
2023/03/09 05:58:33;;;;;;;5.20;1.60;;;8.50;80.20;;;;;;5034842;28;20066;-74
2023/03/09 06:00:58;;;;;;;6.20;1.25;;;8.60;79.80;;;;;;5052833;28;20509;-76
2023/03/09 06:03:25;;;;;;;8.35;2.15;;;8.60;78.80;;;;;;5052798;28;20060;-76
2023/03/09 06:06:02;;;;;;;8.88;1.95;;;8.60;78.30;;;;;;5052615;28;20174;-76
2023/03/09 06:08:27;;;;;;;10.27;2.05;;;8.60;78.00;;;;;;5057206;28;20039;-75
2023/03/09 06:10:53;;;;;;;11.80;2.00;;;8.60;78.30;;;;;;5041534;28;20020;-75
2023/03/09 06:13:20;;;;;;;7.35;1.70;;;8.60;78.00;;;;;;5059562;28;20035;-74
2023/03/09 06:15:46;;;;;;;7.38;1.85;;;8.60;78.10;;;;;;5041644;28;20438;-74
2023/03/09 06:18:11;;;;;;;8.73;1.90;;;8.60;77.50;;;;;;5059033;28;20197;-74
2023/03/09 06:20:37;;;;;;;13.07;2.00;;;8.70;77.60;;;;;;5059236;28;20043;-74
2023/03/09 06:23:03;;;;;;;8.75;1.85;;;8.60;77.00;;;;;;5058984;28;20048;-74
2023/03/09 06:25:29;;;;;;;10.10;1.90;;;8.60;77.70;;;;;;5059234;28;20422;-75
2023/03/09 06:27:54;;;;;;;7.72;1.77;;;8.60;77.80;;;;;;5059187;28;20025;-75
2023/03/09 06:30:21;;;;;;;7.65;1.75;;;8.60;78.10;;;;;;5058977;28;20027;-75
2023/03/09 06:32:47;;;;;;;10.05;2.17;;;8.60;78.20;;;;;;5059228;28;20047;-74
2023/03/09 06:35:12;;;;;;;10.32;2.40;;;8.60;77.90;;;;;;5058828;28;20528;-76
2023/03/09 06:37:38;;;;;;;9.77;2.10;;;8.60;77.70;;;;;;5058646;28;20017;-74
2023/03/09 06:40:04;;;;;;;8.55;1.80;;;8.70;77.30;;;;;;5058838;28;20044;-74
2023/03/09 06:42:30;;;;;;;7.25;1.50;;;8.70;76.40;;;;;;5058784;28;20053;-75
2023/03/09 06:44:56;;;;;;;9.75;2.00;;;8.70;76.10;;;;;;5040991;28;20072;-75
2023/03/09 06:47:21;;;;;;;8.63;2.10;;;8.70;75.50;;;;;;5059143;28;20529;-75
2023/03/09 06:49:47;;;;;;;13.82;2.33;;;8.80;75.80;;;;;;5058830;28;20381;-74
2023/03/09 06:52:12;;;;;;;9.13;1.90;;;8.80;75.30;;;;;;5058725;28;20378;-75
2023/03/09 06:54:38;;;;;;;8.40;1.60;;;8.90;74.80;;;;;;5058800;28;20394;-73
2023/03/09 06:57:04;;;;;;;10.73;2.13;;;8.90;75.00;;;;;;5064841;28;20394;-75
2023/03/09 06:59:29;;;;;;;9.65;1.65;;;8.80;75.10;;;;;;5058306;28;20623;-73
2023/03/09 07:01:55;;;;;;;11.63;3.47;;;8.90;75.30;;;;;;5057393;28;20032;-73
2023/03/09 07:04:21;;;;;;;11.73;2.45;;;8.80;74.90;;;;;;5057393;28;20049;-75
2023/03/09 07:06:46;;;;;;;9.50;2.00;;;8.80;75.20;;;;;;5057218;28;20103;-73
2023/03/09 07:09:12;;;;;;;6.22;1.77;;;8.90;75.10;;;;;;5057770;28;20021;-73
2023/03/09 07:11:37;;;;;;;10.25;1.73;;;8.80;75.50;;;;;;5057180;28;20095;-73
2023/03/09 07:14:03;;;;;;;11.00;2.50;;;8.80;75.20;;;;;;5057244;28;20024;-73
2023/03/09 07:16:30;;;;;;;8.35;1.95;;;8.80;74.90;;;;;;5056725;28;20409;-75
2023/03/09 07:18:56;;;;;;;5.50;1.30;;;8.80;75.40;;;;;;5037972;28;20017;-74
2023/03/09 07:21:21;;;;;;;6.85;1.40;;;8.80;74.30;;;;;;5053824;28;20029;-74
2023/03/09 07:23:47;;;;;;;5.53;1.80;;;8.90;74.20;;;;;;5053665;28;20398;-74
2023/03/09 07:26:13;;;;;;;8.02;1.58;;;8.90;74.50;;;;;;5036072;28;20025;-74
2023/03/09 07:28:39;;;;;;;8.23;1.40;;;8.90;74.40;;;;;;5053589;28;20458;-74
2023/03/09 07:31:09;;;;;;;7.95;1.48;;;8.80;74.30;;;;;;5053756;28;20024;-74
2023/03/09 07:33:35;;;;;;;9.98;1.58;;;8.90;74.90;;;;;;5051382;28;20025;-74
2023/03/09 07:36:07;;;;;;;5.60;1.40;;;9.00;73.50;;;;;;5053838;28;20036;-74
2023/03/09 07:38:33;;;;;;;6.72;1.50;;;9.00;73.40;;;;;;5053694;28;20033;-74
2023/03/09 07:41:00;;;;;;;7.10;1.33;;;9.00;73.50;;;;;;5053628;28;20025;-74
2023/03/09 07:43:26;;;;;;;3.08;0.88;;;9.10;72.00;;;;;;5053305;28;20013;-74
2023/03/09 07:45:51;;;;;;;9.32;1.90;;;9.30;71.30;;;;;;5055228;28;20028;-74
2023/03/09 07:48:17;;;;;;;9.23;2.67;;;9.30;71.00;;;;;;5057015;28;20032;-74
2023/03/09 07:50:43;;;;;;;10.68;1.90;;;9.50;71.20;;;;;;5055837;28;20052;-73
2023/03/09 07:53:09;;;;;;;7.40;1.55;;;9.60;71.70;;;;;;5053976;28;20048;-74
2023/03/09 07:55:35;;;;;;;6.03;1.63;;;9.70;70.90;;;;;;5053848;28;20500;-73
2023/03/09 07:58:04;;;;;;;4.47;1.08;;;9.60;70.70;;;;;;5053260;28;20488;-73
2023/03/09 08:00:29;;;;;;;7.72;1.30;;;9.60;68.70;;;;;;5035179;28;20040;-73
2023/03/09 08:02:56;;;;;;;4.57;1.27;;;9.80;69.60;;;;;;5035507;28;20017;-74
2023/03/09 08:05:22;;;;;;;7.18;1.52;;;10.00;69.50;;;;;;5053154;28;20049;-75
2023/03/09 08:07:49;;;;;;;3.85;1.38;;;10.10;69.30;;;;;;5053498;28;20143;-74
2023/03/09 08:10:16;;;;;;;10.85;1.67;;;10.10;69.50;;;;;;5053293;28;20021;-73
2023/03/09 08:12:43;;;;;;;7.20;1.95;;;10.00;70.00;;;;;;5053336;28;20029;-74
2023/03/09 08:15:10;;;;;;;8.05;1.50;;;10.00;69.70;;;;;;5054769;28;20029;-76
2023/03/09 08:17:35;;;;;;;4.78;1.10;;;10.10;69.80;;;;;;5054514;28;20021;-78
2023/03/09 08:20:02;;;;;;;4.68;1.00;;;10.10;69.50;;;;;;5054191;28;20112;-76
2023/03/09 08:22:27;;;;;;;3.47;1.10;;;10.00;69.70;;;;;;5054206;28;20013;-74
2023/03/09 08:24:53;;;;;;;5.20;1.70;;;10.00;68.90;;;;;;5054184;28;20031;-75
2023/03/09 08:27:18;;;;;;;4.28;1.27;;;10.00;70.00;;;;;;5054304;28;20025;-74
2023/03/09 08:29:44;;;;;;;5.03;1.13;;;10.00;70.10;;;;;;5054013;28;20032;-76
2023/03/09 08:32:10;;;;;;;3.15;0.90;;;10.00;68.80;;;;;;5053657;28;20029;-76
2023/03/09 08:34:37;;;;;;;2.28;0.75;;;10.10;68.30;;;;;;5053601;28;20355;-74
2023/03/09 08:37:03;;;;;;;4.10;1.00;;;10.00;68.80;;;;;;5053848;28;20482;-73
2023/03/09 08:39:28;;;;;;;6.78;1.00;;;10.00;68.80;;;;;;5053857;28;20037;-74
2023/03/09 08:41:54;;;;;;;8.00;3.83;;;10.00;68.30;;;;;;5036116;28;20036;-74
2023/03/09 08:44:19;;;;;;;6.00;1.55;;;10.10;68.90;;;;;;5054110;28;20368;-73
2023/03/09 08:46:45;;;;;;;6.60;1.20;;;10.20;67.60;;;;;;5036222;28;20036;-74
2023/03/09 08:49:10;;;;;;;4.93;1.08;;;10.20;68.30;;;;;;5053811;28;20130;-73
2023/03/09 08:51:36;;;;;;;4.93;1.00;;;10.20;68.20;;;;;;5053869;28;20100;-73
2023/03/09 08:54:01;;;;;;;4.25;1.45;;;10.30;68.20;;;;;;5057277;28;20025;-73
2023/03/09 08:56:27;;;;;;;5.90;1.30;;;10.40;68.90;;;;;;5057017;28;20111;-72
2023/03/09 08:58:52;;;;;;;6.70;1.00;;;10.40;67.90;;;;;;5053851;28;20032;-73
2023/03/09 09:01:18;;;;;;;4.50;1.10;;;10.40;66.60;;;;;;5053674;28;20054;-73
2023/03/09 09:03:44;;;;;;;5.30;1.30;;;10.40;66.10;;;;;;5053464;28;20021;-72
2023/03/09 09:06:12;;;;;;;3.40;0.80;;;10.40;66.60;;;;;;5053311;28;20037;-72
2023/03/09 09:08:38;;;;;;;4.03;0.90;;;10.40;66.00;;;;;;5053485;28;20363;-78
2023/03/09 09:11:09;;;;;;;3.85;1.08;;;10.30;66.30;;;;;;5035528;28;20479;-73
2023/03/09 09:13:37;;;;;;;2.97;0.73;;;10.30;66.60;;;;;;5035415;28;20024;-74
2023/03/09 09:16:05;;;;;;;6.60;0.93;;;10.40;66.50;;;;;;5053403;28;20025;-74
2023/03/09 09:18:31;;;;;;;6.80;1.08;;;10.40;66.70;;;;;;5053115;28;20033;-73
2023/03/09 09:20:57;;;;;;;4.38;0.98;;;10.40;64.60;;;;;;5052997;28;20045;-73
2023/03/09 09:23:23;;;;;;;2.88;0.60;;;10.60;64.80;;;;;;5052929;28;20059;-74
2023/03/09 09:25:56;;;;;;;2.70;0.60;;;10.80;63.60;;;;;;5053001;28;20024;-76
2023/03/09 09:28:22;;;;;;;4.60;0.80;;;10.80;64.40;;;;;;5053209;28;20358;-76
2023/03/09 09:31:07;;;;;;;2.47;0.70;;;10.80;62.80;;;;;;5035275;28;20099;-75
2023/03/09 09:33:33;;;;;;;1.67;0.50;;;10.60;63.20;;;;;;5053056;28;20021;-77
2023/03/09 09:36:00;;;;;;;5.25;0.80;;;10.60;64.50;;;;;;5034994;28;20025;-77
2023/03/09 09:38:28;;;;;;;3.58;1.05;;;10.80;63.80;;;;;;5052833;28;20021;-76
2023/03/09 09:40:55;;;;;;;4.55;0.75;;;11.10;61.40;;;;;;5052837;28;20047;-76
2023/03/09 09:43:22;;;;;;;2.35;0.80;;;11.10;61.50;;;;;;5051979;28;20029;-73
2023/03/09 09:45:49;;;;;;;4.90;1.15;;;11.00;61.50;;;;;;5034793;28;20027;-74
2023/03/09 09:48:17;;;;;;;3.30;0.88;;;10.80;63.40;;;;;;5034861;28;20032;-77
2023/03/09 09:51:30;;;;;;;5.47;0.85;;;10.80;62.60;;;;;;5034803;28;20119;-76
2023/03/09 09:54:14;;;;;;;4.38;0.82;;;10.80;62.40;;;;;;5018606;28;20111;-75
2023/03/09 09:56:55;;;;;;;7.53;1.23;;;10.60;62.20;;;;;;5034441;28;20028;-76
2023/03/09 09:59:40;;;;;;;4.50;0.80;;;10.80;62.10;;;;;;5052382;28;20040;-77
2023/03/09 10:02:09;;;;;;;5.43;1.17;;;11.00;60.70;;;;;;5034820;28;20097;-74
2023/03/09 10:04:49;;;;;;;2.17;0.60;;;11.10;60.50;;;;;;5052382;28;20139;-73
2023/03/09 10:07:16;;;;;;;5.85;1.13;;;11.20;58.90;;;;;;5052292;28;20017;-73
2023/03/09 10:09:46;;;;;;;10.43;1.60;;;11.50;59.20;;;;;;5052468;28;20021;-74
2023/03/09 10:12:14;;;;;;;6.43;1.10;;;11.70;57.00;;;;;;5052511;28;20033;-73
2023/03/09 10:14:55;;;;;;;3.97;0.63;;;11.80;56.70;;;;;;5052567;28;20112;-73
2023/03/09 10:17:31;;;;;;;6.10;0.93;;;11.80;54.60;;;;;;5050680;28;20025;-74
2023/03/09 10:20:02;;;;;;;9.88;1.40;;;11.80;55.40;;;;;;5050632;28;20047;-75
2023/03/09 10:22:27;;;;;;;9.65;1.23;;;12.10;55.10;;;;;;5052294;28;20024;-72
2023/03/09 10:24:55;;;;;;;6.55;1.27;;;12.30;55.30;;;;;;5034458;28;20385;-72
2023/03/09 10:27:30;;;;;;;5.97;0.88;;;12.20;53.30;;;;;;5052501;28;20021;-72
2023/03/09 10:30:08;;;;;;;5.70;1.37;;;12.00;54.40;;;;;;5052392;28;20504;-72
2023/03/09 10:32:42;;;;;;;6.35;1.25;;;12.20;53.80;;;;;;5034545;28;20098;-72
2023/03/09 10:35:22;;;;;;;6.28;1.50;;;12.30;53.50;;;;;;5034781;28;20454;-72
2023/03/09 10:37:50;;;;;;;6.32;1.35;;;12.30;53.00;;;;;;5034649;28;20033;-73
2023/03/09 10:40:22;;;;;;;12.23;2.50;;;12.30;53.70;;;;;;5052402;28;20033;-74
2023/03/09 10:42:48;;;;;;;10.13;1.63;;;12.50;53.20;;;;;;5034292;28;20090;-72
2023/03/09 10:45:26;;;;;;;6.38;1.60;;;12.60;52.30;;;;;;5034787;28;20461;-73
2023/03/09 10:48:09;;;;;;;6.93;1.38;;;12.90;52.50;;;;;;5034251;28;20035;-76
2023/03/09 10:50:53;;;;;;;4.72;1.20;;;13.00;50.20;;;;;;5034217;28;20028;-72
2023/03/09 10:53:34;;;;;;;4.70;0.70;;;12.70;50.10;;;;;;5034426;28;20028;-72
2023/03/09 10:56:15;;;;;;;6.75;1.48;;;12.70;51.20;;;;;;5054047;28;20021;-73
2023/03/09 10:58:41;;;;;;;8.18;1.48;;;12.40;51.10;;;;;;5037012;28;20056;-78
2023/03/09 11:01:15;;;;;;;10.70;1.55;;;12.60;52.00;;;;;;5055274;28;20156;-76
2023/03/09 11:03:42;;;;;;;5.43;1.38;;;12.90;50.60;;;;;;5055152;28;20040;-76
2023/03/09 11:06:09;;;;;;;5.18;1.25;;;12.80;50.50;;;;;;5055100;28;20135;-73
2023/03/09 11:08:35;;;;;;;4.00;0.80;;;12.90;50.40;;;;;;5055423;28;20032;-73
2023/03/09 11:11:08;;;;;;;15.55;1.58;;;12.80;50.20;;;;;;5057208;28;20028;-74
2023/03/09 11:13:34;;;;;;;6.03;1.20;;;13.10;50.30;;;;;;5037306;28;20087;-73
2023/03/09 11:16:14;;;;;;;7.18;2.33;;;13.20;49.60;;;;;;5054482;28;20539;-73
2023/03/09 11:18:40;;;;;;;7.03;1.98;;;13.10;49.10;;;;;;5037362;28;20032;-73
2023/03/09 11:21:06;;;;;;;8.73;1.08;;;13.10;50.10;;;;;;5037467;28;20127;-74
2023/03/09 11:23:42;;;;;;;7.78;1.42;;;13.00;50.30;;;;;;5054872;28;20133;-73
2023/03/09 11:26:19;;;;;;;7.47;2.17;;;13.00;50.40;;;;;;5053118;28;20032;-74
2023/03/09 11:29:01;;;;;;;10.30;1.70;;;12.80;49.80;;;;;;5054967;28;20025;-73
2023/03/09 11:31:41;;;;;;;6.60;1.23;;;12.80;49.80;;;;;;5054559;28;20025;-73
2023/03/09 11:34:22;;;;;;;9.75;1.40;;;12.50;50.10;;;;;;5054926;28;20108;-73
2023/03/09 11:36:53;;;;;;;6.90;1.60;;;12.30;51.70;;;;;;5036455;28;20025;-72
2023/03/09 11:39:34;;;;;;;6.32;1.80;;;12.60;51.50;;;;;;5054765;28;20029;-74
2023/03/09 11:42:04;;;;;;;5.55;1.58;;;12.80;51.00;;;;;;5054695;28;20025;-73
2023/03/09 11:44:34;;;;;;;6.72;1.63;;;12.90;50.50;;;;;;5054884;28;20036;-72
2023/03/09 11:47:05;;;;;;;6.72;1.25;;;12.50;51.20;;;;;;5054656;28;20020;-73
2023/03/09 11:49:31;;;;;;;7.55;1.27;;;12.60;52.30;;;;;;5054409;28;20040;-74
2023/03/09 11:51:58;;;;;;;8.80;1.20;;;12.90;51.00;;;;;;5054196;28;20036;-74
2023/03/09 11:54:42;;;;;;;4.47;0.80;;;13.30;49.80;;;;;;5054449;28;20021;-74
2023/03/09 11:57:20;;;;;;;5.70;1.38;;;13.40;47.60;;;;;;5053830;28;20025;-75
2023/03/09 11:59:57;;;;;;;6.72;1.13;;;13.30;48.70;;;;;;5054056;28;20045;-72
2023/03/09 12:02:46;;;;;;;6.40;1.27;;;13.30;48.30;;;;;;5053390;28;20025;-74
2023/03/09 12:05:14;;;;;;;7.15;1.38;;;13.50;47.80;;;;;;5052754;28;20049;-73
2023/03/09 12:08:02;;;;;;;5.95;0.80;;;13.50;48.70;;;;;;5052740;28;20021;-74
2023/03/09 12:10:37;;;;;;;5.90;1.20;;;13.50;48.10;;;;;;5052298;28;20021;-73
2023/03/09 12:13:17;;;;;;;3.95;1.02;;;13.50;48.60;;;;;;5053849;28;20025;-73
2023/03/09 12:15:45;;;;;;;4.18;0.73;;;13.60;47.70;;;;;;5051818;28;20025;-74
2023/03/09 12:18:28;;;;;;;2.60;0.82;;;13.30;48.20;;;;;;5052845;28;20039;-75
2023/03/09 12:20:56;;;;;;;4.22;0.88;;;13.20;49.20;;;;;;5050797;28;20029;-74
2023/03/09 12:23:34;;;;;;;4.90;0.98;;;13.30;48.40;;;;;;5052454;28;20041;-75
2023/03/09 12:26:04;;;;;;;3.95;1.10;;;13.80;48.10;;;;;;5051233;28;20094;-75
2023/03/09 12:28:31;;;;;;;4.45;0.85;;;13.70;46.90;;;;;;5052516;28;20017;-75
2023/03/09 12:30:57;;;;;;;2.83;0.93;;;13.50;48.10;;;;;;5052423;28;20017;-75
2023/03/09 12:33:46;;;;;;;5.10;0.88;;;13.20;49.30;;;;;;5055727;28;20072;-76
2023/03/09 12:36:28;;;;;;;4.30;0.52;;;12.60;49.70;;;;;;5021096;28;20083;-73
2023/03/09 12:39:24;;;;;;;2.05;0.57;;;12.50;51.30;;;;;;5049838;28;20424;-74
2023/03/09 12:42:08;;;;;;;3.42;0.85;;;12.50;51.40;;;;;;5052483;28;20131;-73
2023/03/09 12:44:43;;;;;;;2.78;0.45;;;12.90;50.40;;;;;;5049726;28;20019;-74
2023/03/09 12:47:24;;;;;;;2.30;0.60;;;13.10;49.00;;;;;;5033470;28;20021;-74
2023/03/09 12:50:00;;;;;;;6.22;0.70;;;13.10;49.20;;;;;;5052352;28;20031;-75
2023/03/09 12:52:32;;;;;;;2.80;0.77;;;13.20;49.10;;;;;;5053138;28;20354;-75
2023/03/09 12:55:23;;;;;;;3.47;0.43;;;13.00;49.60;;;;;;5051247;28;20104;-75
2023/03/09 12:57:51;;;;;;;4.47;0.52;;;12.90;49.90;;;;;;5051627;28;20039;-75